< < Back
Terminal Aerodrome Forecast


Current Version              Previous Versions:   1  2  3  4  5  6  7  8  9  

Terminal Aerodrome Forecast

825
FTUS42 KCAE 271700
TAFAGS
TAF
KAGS 271721Z 2718/2818 25010G16KT P6SM SCT050
     FM280000 25006KT P6SM SCT150
     FM281400 27012G20KT P6SM SCT040=

Latest METAR

508
SAUS70 KWBC 280400 RRA
MTRAGS
METAR KAGS 280353Z AUTO 25003KT 10SM CLR 28/23 A2990 RMK AO2 SLP122
T02780228


USA.gov is the U.S. government's official web portal to all federal, state and local government web resources and services.